Time;durP1;ratioP1;P1;durP2;ratioP2;P2;SDS_P1;SDS_P2;PMS_P1;PMS_P2;Temp;Humidity;BMP_temperature;BMP_pressure;BME280_temperature;BME280_humidity;BME280_pressure;Samples;Min_cycle;Max_cycle;Signal;HPM_P1;HPM_P2
2021/07/22 00:01:38;;;;;;;;;;;27.60;95.10;;;;;;1939836;72;20212;-91
2021/07/22 00:04:08;;;;;;;;;;;27.50;95.10;;;;;;1944649;72;20238;-89
2021/07/22 00:06:38;;;;;;;;;;;27.60;95.20;;;;;;1937354;72;20173;-90
2021/07/22 00:09:08;;;;;;;;;;;27.60;95.10;;;;;;1948645;72;20187;-90
2021/07/22 00:11:38;;;;;;;;;;;27.60;95.10;;;;;;1950367;72;20183;-90
2021/07/22 00:14:10;;;;;;;;;;;27.60;95.10;;;;;;1958948;72;20568;-91
2021/07/22 00:16:40;;;;;;;;;;;27.60;95.20;;;;;;1916282;73;20158;-90
2021/07/22 00:19:18;;;;;;;;;;;27.60;95.30;;;;;;1922608;73;20195;-90
2021/07/22 00:21:48;;;;;;;;;;;27.60;95.30;;;;;;1925623;73;20171;-92
2021/07/22 00:24:19;;;;;;;;;;;27.60;95.40;;;;;;1917717;73;20267;-90
2021/07/22 00:26:48;;;;;;;;;;;27.60;95.20;;;;;;1925828;73;20262;-90
2021/07/22 00:29:20;;;;;;;;;;;27.60;95.30;;;;;;1921695;73;20284;-90
2021/07/22 00:31:49;;;;;;;;;;;27.60;95.30;;;;;;1919650;73;20242;-90
2021/07/22 00:34:19;;;;;;;;;;;27.70;95.30;;;;;;1923571;73;20234;-90
2021/07/22 00:36:49;;;;;;;;;;;27.70;95.30;;;;;;1916122;73;20224;-91
2021/07/22 00:39:18;;;;;;;;;;;27.70;95.20;;;;;;1926398;73;20551;-90
2021/07/22 00:41:48;;;;;;;;;;;27.80;95.30;;;;;;1922451;73;20258;-90
2021/07/22 00:44:17;;;;;;;;;;;27.80;95.20;;;;;;1925682;73;20159;-91
2021/07/22 00:46:47;;;;;;;;;;;27.80;95.10;;;;;;1921898;73;20191;-91
2021/07/22 00:49:17;;;;;;;;;;;27.80;94.90;;;;;;1925348;73;20163;-90
2021/07/22 00:51:47;;;;;;;;;;;27.90;95.00;;;;;;1926612;73;20185;-91
2021/07/22 00:54:34;;;;;;;;;;;;;;;;;;;;;
2021/07/22 00:57:12;;;;;;;;;;;28.00;94.90;;;;;;1902128;74;20167;-91
2021/07/22 00:59:46;;;;;;;;;;;28.10;94.50;;;;;;1903178;74;20276;-91
2021/07/22 01:02:19;;;;;;;;;;;28.20;94.40;;;;;;1946767;72;20168;-89
2021/07/22 01:04:50;;;;;;;;;;;28.20;94.20;;;;;;1938176;72;20426;-91
2021/07/22 01:07:21;;;;;;;;;;;28.20;94.10;;;;;;1937908;72;20226;-90
2021/07/22 01:10:45;;;;;;;;;;;28.20;94.00;;;;;;1921988;73;20443;-92
2021/07/22 01:12:52;;;;;;;;;;;28.30;94.00;;;;;;1872084;72;20172;-91
2021/07/22 01:15:21;;;;;;;;;;;28.30;94.00;;;;;;1939049;72;20158;-91
2021/07/22 01:17:51;;;;;;;;;;;28.30;94.00;;;;;;1939118;72;20487;-91
2021/07/22 01:20:22;;;;;;;;;;;28.40;94.00;;;;;;1938548;72;20204;-90
2021/07/22 01:22:53;;;;;;;;;;;28.40;93.80;;;;;;1950590;73;20218;-90
2021/07/22 01:25:33;;;;;;;;;;;28.60;93.60;;;;;;1940499;72;20242;-91
2021/07/22 01:27:59;;;;;;;;;;;28.60;93.30;;;;;;1918187;73;20197;-90
2021/07/22 01:30:28;;;;;;;;;;;28.70;93.20;;;;;;1942263;73;20396;-89
2021/07/22 01:32:58;;;;;;;;;;;28.80;92.60;;;;;;1929175;73;20189;-89
2021/07/22 01:35:27;;;;;;;;;;;28.90;92.10;;;;;;1898496;74;20140;-90
2021/07/22 01:37:57;;;;;;;;;;;29.00;91.90;;;;;;1939180;73;20201;-91
2021/07/22 01:40:30;;;;;;;;;;;29.00;91.90;;;;;;1932944;73;20246;-90
2021/07/22 01:43:17;;;;;;;;;;;29.20;91.90;;;;;;1928598;73;20173;-90
2021/07/22 01:45:46;;;;;;;;;;;29.20;91.60;;;;;;1933280;73;20177;-91
2021/07/22 01:48:16;;;;;;;;;;;29.20;91.90;;;;;;1942295;73;20212;-90
2021/07/22 01:50:46;;;;;;;;;;;29.30;91.80;;;;;;1949892;73;20268;-90
2021/07/22 01:53:16;;;;;;;;;;;29.40;91.60;;;;;;1923495;72;20275;-91
2021/07/22 01:55:46;;;;;;;;;;;29.50;91.60;;;;;;1910285;74;20157;-77
2021/07/22 01:58:16;;;;;;;;;;;29.60;91.00;;;;;;1910921;74;20166;-78
2021/07/22 02:00:46;;;;;;;;;;;29.60;90.70;;;;;;1910234;74;20233;-78
2021/07/22 02:03:18;;;;;;;;;;;29.60;90.80;;;;;;1907148;74;20175;-78
2021/07/22 02:05:55;;;;;;;;;;;29.70;91.10;;;;;;1896485;75;20202;-78
2021/07/22 02:08:22;;;;;;;;;;;29.80;91.20;;;;;;1893356;74;20161;-77
2021/07/22 02:10:55;;;;;;;;;;;30.00;90.60;;;;;;1903941;75;20189;-79
2021/07/22 02:13:24;;;;;;;;;;;30.10;90.10;;;;;;1909710;75;20189;-79
2021/07/22 02:15:54;;;;;;;;;;;30.20;89.20;;;;;;1910097;75;20202;-78
2021/07/22 02:18:24;;;;;;;;;;;30.30;88.70;;;;;;1911630;75;20249;-78
2021/07/22 02:20:54;;;;;;;;;;;30.30;88.50;;;;;;1917389;75;20477;-79
2021/07/22 02:23:26;;;;;;;;;;;30.40;88.70;;;;;;1915113;75;20189;-79
2021/07/22 02:25:57;;;;;;;;;;;30.30;88.30;;;;;;1895978;75;20192;-78
2021/07/22 02:28:28;;;;;;;;;;;30.30;89.30;;;;;;1863538;75;20223;-77
2021/07/22 02:30:58;;;;;;;;;;;30.30;89.00;;;;;;1883934;75;20440;-78
2021/07/22 02:33:28;;;;;;;;;;;30.30;88.40;;;;;;1894872;75;20201;-80
2021/07/22 02:35:57;;;;;;;;;;;30.30;87.90;;;;;;1899707;74;20154;-80
2021/07/22 02:38:28;;;;;;;;;;;30.40;88.50;;;;;;1876128;76;20569;-79
2021/07/22 02:40:57;;;;;;;;;;;30.40;88.50;;;;;;1872443;75;20187;-78
2021/07/22 02:43:27;;;;;;;;;;;30.60;87.50;;;;;;1869128;75;20239;-78
2021/07/22 02:46:06;;;;;;;;;;;30.70;86.70;;;;;;1908794;74;20781;-79
2021/07/22 02:48:34;;;;;;;;;;;30.80;86.80;;;;;;1901368;75;20778;-79
2021/07/22 02:51:05;;;;;;;;;;;30.80;86.10;;;;;;1906018;74;20188;-80
2021/07/22 02:53:36;;;;;;;;;;;30.80;85.70;;;;;;1886343;73;20266;-79
2021/07/22 02:56:06;;;;;;;;;;;30.80;85.70;;;;;;1912180;74;20166;-79
2021/07/22 02:58:35;;;;;;;;;;;30.90;85.40;;;;;;1917609;74;20191;-79
2021/07/22 03:01:06;;;;;;;;;;;30.90;85.10;;;;;;1916014;73;20233;-80
2021/07/22 03:03:37;;;;;;;;;;;30.90;85.70;;;;;;1928595;73;20264;-80
2021/07/22 03:06:06;;;;;;;;;;;31.00;85.10;;;;;;1923203;73;20547;-76
2021/07/22 03:08:36;;;;;;;;;;;31.00;84.80;;;;;;1906793;75;20261;-77
2021/07/22 03:11:07;;;;;;;;;;;31.00;84.40;;;;;;1941808;73;20251;-78
2021/07/22 03:13:38;;;;;;;;;;;31.10;84.60;;;;;;1906472;73;20320;-79
2021/07/22 03:16:08;;;;;;;;;;;31.30;84.30;;;;;;1915580;73;20207;-80
2021/07/22 03:18:39;;;;;;;;;;;31.30;83.90;;;;;;1913421;73;20228;-78
2021/07/22 03:21:11;;;;;;;;;;;31.40;84.00;;;;;;1910967;73;20174;-78
2021/07/22 03:23:43;;;;;;;;;;;31.40;83.40;;;;;;1916787;74;20209;-77
2021/07/22 03:26:32;;;;;;;;;;;31.50;83.20;;;;;;1897879;73;20189;-78
2021/07/22 03:29:27;;;;;;;;;;;31.40;83.30;;;;;;1902699;74;20156;-80
2021/07/22 03:32:05;;;;;;;;;;;31.20;83.50;;;;;;1905873;74;20173;-79
2021/07/22 03:34:34;;;;;;;;;;;31.00;83.80;;;;;;1909937;74;20269;-79
2021/07/22 03:37:06;;;;;;;;;;;30.90;84.10;;;;;;1905893;75;20265;-80
2021/07/22 03:39:35;;;;;;;;;;;30.80;84.40;;;;;;1918327;73;20844;-79
2021/07/22 03:42:06;;;;;;;;;;;30.80;84.00;;;;;;1914255;73;20227;-79
2021/07/22 03:44:36;;;;;;;;;;;30.80;83.70;;;;;;1916734;73;20194;-79
2021/07/22 03:47:12;;;;;;;;;;;30.80;84.20;;;;;;1904503;73;20173;-79
2021/07/22 03:49:43;;;;;;;;;;;30.90;84.40;;;;;;1902478;73;20232;-80
2021/07/22 03:52:17;;;;;;;;;;;31.00;84.50;;;;;;1925125;74;20566;-80
2021/07/22 03:54:48;;;;;;;;;;;31.10;83.80;;;;;;1912366;73;20178;-79
2021/07/22 03:57:19;;;;;;;;;;;31.20;83.80;;;;;;1879092;75;20167;-80
2021/07/22 03:59:49;;;;;;;;;;;31.30;82.50;;;;;;1872586;75;20485;-80
2021/07/22 04:02:18;;;;;;;;;;;31.30;82.30;;;;;;1866473;75;20186;-81
2021/07/22 04:04:48;;;;;;;;;;;31.30;82.00;;;;;;1863933;75;20266;-81
2021/07/22 04:07:18;;;;;;;;;;;31.30;82.10;;;;;;1878264;75;20178;-79
2021/07/22 04:09:50;;;;;;;;;;;31.30;82.30;;;;;;1878013;75;20514;-79
2021/07/22 04:12:20;;;;;;;;;;;31.50;79.90;;;;;;1906203;74;20177;-78
2021/07/22 04:14:49;;;;;;;;;;;31.60;79.10;;;;;;1904105;74;20188;-78
2021/07/22 04:17:19;;;;;;;;;;;31.80;79.50;;;;;;1871866;75;20223;-79
2021/07/22 04:19:49;;;;;;;;;;;31.90;78.40;;;;;;1875708;75;20235;-79
2021/07/22 04:22:18;;;;;;;;;;;32.10;77.50;;;;;;1867644;76;20226;-79
2021/07/22 04:24:48;;;;;;;;;;;32.20;77.00;;;;;;1872877;75;20210;-79
2021/07/22 04:27:19;;;;;;;;;;;32.20;76.20;;;;;;1874778;75;20491;-80
2021/07/22 04:29:49;;;;;;;;;;;32.20;76.70;;;;;;1878553;75;20223;-79
2021/07/22 04:32:19;;;;;;;;;;;32.20;75.40;;;;;;1871750;75;20160;-80
2021/07/22 04:34:48;;;;;;;;;;;32.30;76.30;;;;;;1872451;76;20220;-78
2021/07/22 04:37:19;;;;;;;;;;;32.40;75.30;;;;;;1876168;76;20213;-79
2021/07/22 04:39:49;;;;;;;;;;;32.30;75.50;;;;;;1887562;75;20413;-80
2021/07/22 04:42:21;;;;;;;;;;;32.30;75.80;;;;;;1872283;75;20182;-79
2021/07/22 04:44:51;;;;;;;;;;;32.20;76.40;;;;;;1895091;74;20213;-79
2021/07/22 04:47:20;;;;;;;;;;;32.20;75.80;;;;;;1890535;74;20227;-79
2021/07/22 04:49:53;;;;;;;;;;;32.20;75.30;;;;;;1892233;74;20519;-80
2021/07/22 04:52:22;;;;;;;;;;;32.20;75.10;;;;;;1902372;75;20193;-79
2021/07/22 04:54:53;;;;;;;;;;;32.30;75.00;;;;;;1892102;73;20202;-79
2021/07/22 04:57:23;;;;;;;;;;;32.30;74.70;;;;;;1914047;74;20199;-79
2021/07/22 04:59:52;;;;;;;;;;;32.30;74.40;;;;;;1908063;75;20394;-79
2021/07/22 05:02:22;;;;;;;;;;;32.30;75.20;;;;;;1914506;74;20134;-79
2021/07/22 05:04:52;;;;;;;;;;;32.30;76.80;;;;;;1912339;75;20187;-80
2021/07/22 05:07:22;;;;;;;;;;;32.20;77.10;;;;;;1918256;74;20153;-79
2021/07/22 05:09:52;;;;;;;;;;;32.20;78.00;;;;;;1923098;73;20130;-79
2021/07/22 05:12:22;;;;;;;;;;;32.30;76.90;;;;;;1933353;73;20174;-79
2021/07/22 05:14:51;;;;;;;;;;;32.30;76.80;;;;;;1914675;73;20237;-79
2021/07/22 05:17:21;;;;;;;;;;;32.40;76.70;;;;;;1912777;74;20218;-78
2021/07/22 05:19:52;;;;;;;;;;;32.30;74.90;;;;;;1914943;73;20203;-77
2021/07/22 05:22:23;;;;;;;;;;;32.20;75.10;;;;;;1919874;73;20181;-80
2021/07/22 05:24:57;;;;;;;;;;;32.10;76.60;;;;;;1901007;74;20191;-79
2021/07/22 05:27:26;;;;;;;;;;;32.20;77.80;;;;;;1915538;73;20211;-79
2021/07/22 05:29:56;;;;;;;;;;;32.20;77.80;;;;;;1901840;73;20228;-80
2021/07/22 05:32:26;;;;;;;;;;;32.20;76.90;;;;;;1911422;74;20199;-78
2021/07/22 05:34:56;;;;;;;;;;;32.20;76.70;;;;;;1915116;74;20193;-79
2021/07/22 05:37:25;;;;;;;;;;;32.20;76.60;;;;;;1890999;74;20176;-79
2021/07/22 05:39:55;;;;;;;;;;;32.00;77.10;;;;;;1894492;75;20120;-80
2021/07/22 05:42:25;;;;;;;;;;;31.90;77.20;;;;;;1901214;74;20149;-79
2021/07/22 05:44:55;;;;;;;;;;;31.90;76.70;;;;;;1897214;74;20249;-79
2021/07/22 05:47:25;;;;;;;;;;;32.00;76.70;;;;;;1907966;74;20205;-80
2021/07/22 05:49:57;;;;;;;;;;;32.20;76.20;;;;;;1908985;74;20276;-79
2021/07/22 05:52:28;;;;;;;;;;;32.40;74.70;;;;;;1881254;74;20242;-80
2021/07/22 05:54:58;;;;;;;;;;;32.60;73.90;;;;;;1911193;74;20186;-80
2021/07/22 05:57:32;;;;;;;;;;;32.70;73.70;;;;;;1902162;73;20213;-80
2021/07/22 06:00:01;;;;;;;;;;;32.80;74.50;;;;;;1890893;75;20504;-79
2021/07/22 06:02:31;;;;;;;;;;;32.70;73.20;;;;;;1899884;74;20252;-78
2021/07/22 06:05:01;;;;;;;;;;;32.60;74.20;;;;;;1903412;74;20118;-78
2021/07/22 06:07:31;;;;;;;;;;;32.60;74.40;;;;;;1872932;75;20211;-79
2021/07/22 06:10:01;;;;;;;;;;;32.50;74.40;;;;;;1880341;75;20217;-79
2021/07/22 06:12:30;;;;;;;;;;;32.40;74.80;;;;;;1870769;75;20135;-79
2021/07/22 06:15:01;;;;;;;;;;;32.30;75.20;;;;;;1876016;75;20211;-78
2021/07/22 06:17:30;;;;;;;;;;;32.20;75.10;;;;;;1874039;76;20127;-79
2021/07/22 06:20:00;;;;;;;;;;;32.10;75.50;;;;;;1903098;75;20161;-78
2021/07/22 06:22:31;;;;;;;;;;;32.10;75.80;;;;;;1890363;75;20226;-79
2021/07/22 06:25:01;;;;;;;;;;;32.10;75.00;;;;;;1898167;75;20547;-79
2021/07/22 06:27:31;;;;;;;;;;;32.00;75.30;;;;;;1893658;74;20551;-79
2021/07/22 06:30:00;;;;;;;;;;;32.00;75.80;;;;;;1898490;74;20186;-79
2021/07/22 06:32:33;;;;;;;;;;;32.10;76.70;;;;;;1894799;74;20221;-78
2021/07/22 06:35:03;;;;;;;;;;;32.30;76.50;;;;;;1894928;75;20132;-77
2021/07/22 06:37:35;;;;;;;;;;;32.40;75.60;;;;;;1901643;73;20189;-78
2021/07/22 06:40:04;;;;;;;;;;;32.50;74.40;;;;;;1889450;75;20205;-78
2021/07/22 06:42:34;;;;;;;;;;;32.60;74.00;;;;;;1900405;74;20212;-78
2021/07/22 06:45:04;;;;;;;;;;;32.50;74.30;;;;;;1898247;75;20197;-77
2021/07/22 06:47:35;;;;;;;;;;;32.40;74.90;;;;;;1906151;74;20161;-79
2021/07/22 06:50:09;;;;;;;;;;;32.40;74.80;;;;;;1896792;74;20165;-79
2021/07/22 06:52:39;;;;;;;;;;;32.30;74.60;;;;;;1903318;74;20161;-80
2021/07/22 06:55:10;;;;;;;;;;;32.20;75.10;;;;;;1912943;74;20217;-80
2021/07/22 06:57:39;;;;;;;;;;;32.10;75.10;;;;;;1913598;73;20203;-79
2021/07/22 07:00:10;;;;;;;;;;;32.00;75.30;;;;;;1908790;74;20621;-79
2021/07/22 07:02:39;;;;;;;;;;;32.00;75.70;;;;;;1899623;73;20250;-79
2021/07/22 07:05:15;;;;;;;;;;;32.00;75.70;;;;;;1882127;76;20533;-80
2021/07/22 07:07:47;;;;;;;;;;;32.00;76.40;;;;;;1883917;76;20396;-79
2021/07/22 07:10:16;;;;;;;;;;;32.10;77.40;;;;;;1917083;74;20120;-80
2021/07/22 07:12:46;;;;;;;;;;;32.10;76.40;;;;;;1892393;75;20426;-79
2021/07/22 07:15:16;;;;;;;;;;;32.20;75.50;;;;;;1895341;75;20157;-79
2021/07/22 07:17:45;;;;;;;;;;;32.20;75.50;;;;;;1893183;75;20261;-77
2021/07/22 07:20:15;;;;;;;;;;;32.20;74.40;;;;;;1903103;74;20207;-78
2021/07/22 07:22:45;;;;;;;;;;;32.30;72.40;;;;;;1905425;73;20130;-79
2021/07/22 07:25:15;;;;;;;;;;;32.40;71.70;;;;;;1922664;75;20196;-79
2021/07/22 07:27:46;;;;;;;;;;;32.40;71.10;;;;;;1903698;73;20200;-79
2021/07/22 07:30:19;;;;;;;;;;;32.60;70.90;;;;;;1916627;75;20173;-79
2021/07/22 07:32:48;;;;;;;;;;;32.60;71.60;;;;;;1907802;74;20441;-79
2021/07/22 07:35:17;;;;;;;;;;;32.70;71.30;;;;;;1904999;74;20179;-78
2021/07/22 07:37:47;;;;;;;;;;;32.70;71.70;;;;;;1917745;74;20204;-78
2021/07/22 07:40:17;;;;;;;;;;;32.80;71.60;;;;;;1901955;75;20179;-78
2021/07/22 07:42:46;;;;;;;;;;;32.80;71.60;;;;;;1921983;74;20209;-79
2021/07/22 07:45:16;;;;;;;;;;;32.70;71.70;;;;;;1914051;74;20151;-79
2021/07/22 07:47:46;;;;;;;;;;;32.60;72.00;;;;;;1916050;74;20180;-78
2021/07/22 07:50:17;;;;;;;;;;;32.50;72.60;;;;;;1908570;74;20216;-80
2021/07/22 07:52:46;;;;;;;;;;;32.40;73.40;;;;;;1898215;74;20154;-78
2021/07/22 07:55:16;;;;;;;;;;;32.30;73.70;;;;;;1920402;73;20409;-79
2021/07/22 07:57:46;;;;;;;;;;;32.30;74.40;;;;;;1907616;74;20188;-79
2021/07/22 08:00:16;;;;;;;;;;;32.30;75.40;;;;;;1905592;74;20239;-79
2021/07/22 08:02:47;;;;;;;;;;;32.20;76.20;;;;;;1885761;75;20238;-79
2021/07/22 08:05:27;;;;;;;;;;;32.20;76.30;;;;;;1876414;75;20160;-80
2021/07/22 08:07:56;;;;;;;;;;;32.20;76.70;;;;;;1901913;75;20535;-80
2021/07/22 08:10:26;;;;;;;;;;;32.20;76.20;;;;;;1897528;75;20453;-82
2021/07/22 08:12:56;;;;;;;;;;;32.30;76.60;;;;;;1891880;75;20182;-81
2021/07/22 08:15:25;;;;;;;;;;;32.20;76.60;;;;;;1896077;74;20218;-79
2021/07/22 08:17:55;;;;;;;;;;;32.20;76.70;;;;;;1874686;75;20188;-78
2021/07/22 08:20:25;;;;;;;;;;;32.30;76.00;;;;;;1901126;74;20445;-79
2021/07/22 08:22:55;;;;;;;;;;;32.20;76.00;;;;;;1864780;76;20164;-77
2021/07/22 08:25:29;;;;;;;;;;;32.30;75.80;;;;;;1885711;74;20192;-78
2021/07/22 08:27:55;;;;;;;;;;;32.30;75.90;;;;;;1886326;76;20199;-78
2021/07/22 08:30:25;;;;;;;;;;;32.30;76.10;;;;;;1884712;75;20817;-79
2021/07/22 08:32:55;;;;;;;;;;;32.20;75.20;;;;;;1881543;75;20206;-79
2021/07/22 08:35:26;;;;;;;;;;;32.20;75.40;;;;;;1880288;75;20165;-78
2021/07/22 08:37:55;;;;;;;;;;;32.10;76.00;;;;;;1882784;75;20163;-78
2021/07/22 08:40:25;;;;;;;;;;;32.00;74.40;;;;;;1882327;75;20659;-78
2021/07/22 08:42:57;;;;;;;;;;;32.00;74.50;;;;;;1887613;76;20207;-77
2021/07/22 08:45:26;;;;;;;;;;;31.80;74.50;;;;;;1878482;75;20210;-76
2021/07/22 08:48:01;;;;;;;;;;;31.80;74.00;;;;;;1888945;76;20191;-78
2021/07/22 08:50:30;;;;;;;;;;;31.80;74.90;;;;;;1892781;76;20175;-78
2021/07/22 08:52:59;;;;;;;;;;;31.70;75.10;;;;;;1886243;75;20183;-79
2021/07/22 08:55:30;;;;;;;;;;;31.70;75.30;;;;;;1870083;75;20152;-78
2021/07/22 08:58:00;;;;;;;;;;;31.70;75.30;;;;;;1898356;73;20218;-79
2021/07/22 09:00:31;;;;;;;;;;;31.70;75.60;;;;;;1944969;73;20210;-78
2021/07/22 09:03:01;;;;;;;;;;;31.70;75.30;;;;;;1942968;72;20199;-78
2021/07/22 09:05:31;;;;;;;;;;;31.60;75.60;;;;;;1941340;72;20258;-77
2021/07/22 09:08:01;;;;;;;;;;;31.60;75.40;;;;;;1940496;72;20238;-76
2021/07/22 09:10:30;;;;;;;;;;;31.70;74.50;;;;;;1941400;73;20219;-77
2021/07/22 09:13:00;;;;;;;;;;;31.60;75.70;;;;;;1953046;72;20183;-76
2021/07/22 09:15:35;;;;;;;;;;;31.60;75.20;;;;;;1954232;73;20188;-78
2021/07/22 09:18:04;;;;;;;;;;;31.70;75.70;;;;;;1940067;72;20201;-79
2021/07/22 09:20:35;;;;;;;;;;;31.70;76.30;;;;;;1939726;73;20198;-78
2021/07/22 09:23:05;;;;;;;;;;;31.80;76.20;;;;;;1943893;73;20195;-76
2021/07/22 09:25:36;;;;;;;;;;;31.80;76.70;;;;;;1937998;73;20194;-77
2021/07/22 09:28:06;;;;;;;;;;;31.90;75.60;;;;;;1922532;74;20250;-79
2021/07/22 09:30:36;;;;;;;;;;;32.00;75.50;;;;;;1926665;73;20268;-79
2021/07/22 09:33:07;;;;;;;;;;;31.90;75.20;;;;;;1919311;74;20591;-78
2021/07/22 09:35:37;;;;;;;;;;;32.00;75.10;;;;;;1922957;74;20566;-79
2021/07/22 09:38:09;;;;;;;;;;;32.00;75.60;;;;;;1949999;73;20150;-77
2021/07/22 09:40:39;;;;;;;;;;;31.90;76.30;;;;;;1945398;73;20178;-78
2021/07/22 09:43:09;;;;;;;;;;;31.80;76.60;;;;;;1945207;73;20192;-77
2021/07/22 09:45:40;;;;;;;;;;;31.70;76.60;;;;;;1927961;74;20650;-78
2021/07/22 09:48:12;;;;;;;;;;;31.70;76.90;;;;;;1933908;73;20125;-77
2021/07/22 09:50:43;;;;;;;;;;;31.60;77.00;;;;;;1957758;73;20190;-76
2021/07/22 09:53:14;;;;;;;;;;;31.60;76.60;;;;;;1937916;73;20172;-76
2021/07/22 09:56:01;;;;;;;;;;;31.60;76.90;;;;;;1941080;72;20155;-76
2021/07/22 09:58:32;;;;;;;;;;;31.50;76.70;;;;;;1886448;74;20513;-76
2021/07/22 10:01:01;;;;;;;;;;;31.50;76.80;;;;;;1940457;73;20213;-76
2021/07/22 10:03:32;;;;;;;;;;;31.40;76.40;;;;;;1950228;72;20120;-78
2021/07/22 10:06:05;;;;;;;;;;;31.40;76.50;;;;;;1875017;74;20218;-76
2021/07/22 10:08:36;;;;;;;;;;;31.40;77.20;;;;;;1931264;74;20128;-76
2021/07/22 10:11:07;;;;;;;;;;;31.40;76.90;;;;;;1943158;72;20526;-77
2021/07/22 10:13:39;;;;;;;;;;;31.40;77.20;;;;;;1927134;74;20231;-77
2021/07/22 10:16:11;;;;;;;;;;;31.40;77.30;;;;;;1945761;74;20455;-76
2021/07/22 10:18:42;;;;;;;;;;;31.50;77.30;;;;;;1939840;74;20214;-77
2021/07/22 10:21:12;;;;;;;;;;;31.50;77.30;;;;;;1929461;74;20197;-77
2021/07/22 10:23:43;;;;;;;;;;;31.50;77.10;;;;;;1933305;73;20256;-79
2021/07/22 10:26:12;;;;;;;;;;;31.50;76.90;;;;;;1942055;74;20194;-78
2021/07/22 10:28:43;;;;;;;;;;;31.40;76.60;;;;;;1944565;73;20261;-77
2021/07/22 10:31:13;;;;;;;;;;;31.40;77.10;;;;;;1946920;73;20159;-78
2021/07/22 10:33:44;;;;;;;;;;;31.40;77.20;;;;;;1880631;74;20226;-78
2021/07/22 10:36:14;;;;;;;;;;;31.40;77.40;;;;;;1870169;76;20263;-77
2021/07/22 10:38:45;;;;;;;;;;;31.40;77.30;;;;;;1902086;75;20121;-78
2021/07/22 10:41:16;;;;;;;;;;;31.30;77.50;;;;;;1905123;75;20167;-76
2021/07/22 10:43:47;;;;;;;;;;;31.30;77.80;;;;;;1902778;74;20172;-77
2021/07/22 10:46:18;;;;;;;;;;;31.30;78.00;;;;;;1904245;73;20188;-77
2021/07/22 10:48:48;;;;;;;;;;;31.20;78.10;;;;;;1897880;75;20229;-77
2021/07/22 10:51:19;;;;;;;;;;;31.20;78.50;;;;;;1893482;75;20186;-77
2021/07/22 10:53:50;;;;;;;;;;;31.10;78.30;;;;;;1891196;75;20213;-76
2021/07/22 10:56:20;;;;;;;;;;;31.10;77.80;;;;;;1885262;75;20490;-77
2021/07/22 10:58:51;;;;;;;;;;;31.10;77.90;;;;;;1895126;75;20243;-77
2021/07/22 11:01:26;;;;;;;;;;;31.10;78.00;;;;;;1891598;75;20523;-78
2021/07/22 11:03:56;;;;;;;;;;;31.10;78.40;;;;;;1891752;74;20142;-77
2021/07/22 11:06:25;;;;;;;;;;;31.10;78.60;;;;;;1904187;75;20536;-77
2021/07/22 11:08:56;;;;;;;;;;;31.00;78.80;;;;;;1905046;75;20195;-78
2021/07/22 11:11:27;;;;;;;;;;;31.00;79.00;;;;;;1908626;74;20251;-77
2021/07/22 11:13:56;;;;;;;;;;;30.90;79.10;;;;;;1892951;74;20223;-78
2021/07/22 11:16:31;;;;;;;;;;;30.90;79.50;;;;;;1897028;74;20129;-79
2021/07/22 11:19:03;;;;;;;;;;;30.80;79.50;;;;;;1907451;75;20230;-77
2021/07/22 11:21:34;;;;;;;;;;;30.80;79.90;;;;;;1910669;73;20203;-77
2021/07/22 11:24:06;;;;;;;;;;;30.80;80.10;;;;;;1890163;74;20226;-78
2021/07/22 11:26:37;;;;;;;;;;;30.80;80.20;;;;;;1904503;74;20203;-77
2021/07/22 11:29:09;;;;;;;;;;;30.70;80.40;;;;;;1897635;75;20525;-78
2021/07/22 11:31:40;;;;;;;;;;;30.70;80.70;;;;;;1898846;75;20207;-80
2021/07/22 11:34:10;;;;;;;;;;;30.70;80.70;;;;;;1897112;74;20509;-77
2021/07/22 11:36:40;;;;;;;;;;;30.70;80.90;;;;;;1952541;72;20206;-77
2021/07/22 11:39:10;;;;;;;;;;;30.70;81.00;;;;;;1941202;72;20210;-78
2021/07/22 11:41:40;;;;;;;;;;;30.70;81.00;;;;;;1937405;72;20266;-78
2021/07/22 11:44:11;;;;;;;;;;;30.70;81.20;;;;;;1943368;73;20156;-77
2021/07/22 11:46:42;;;;;;;;;;;30.60;81.20;;;;;;1938750;72;20235;-77
2021/07/22 11:49:14;;;;;;;;;;;30.60;81.30;;;;;;1934150;72;20523;-78
2021/07/22 11:51:45;;;;;;;;;;;30.60;81.40;;;;;;1934244;72;20490;-77
2021/07/22 11:54:15;;;;;;;;;;;30.60;81.60;;;;;;1908304;73;20595;-78
2021/07/22 11:56:50;;;;;;;;;;;30.60;81.70;;;;;;1914406;73;20180;-78
2021/07/22 11:59:19;;;;;;;;;;;30.60;81.90;;;;;;1924479;73;20184;-78
2021/07/22 12:01:50;;;;;;;;;;;30.60;82.10;;;;;;1924012;73;20406;-79
2021/07/22 12:04:21;;;;;;;;;;;30.60;82.10;;;;;;1925415;73;20189;-77
2021/07/22 12:06:51;;;;;;;;;;;30.60;82.30;;;;;;1913854;73;20485;-76
2021/07/22 12:09:21;;;;;;;;;;;30.50;82.30;;;;;;1929422;73;20597;-77
2021/07/22 12:11:52;;;;;;;;;;;30.50;82.50;;;;;;1898478;74;20230;-77
2021/07/22 12:14:23;;;;;;;;;;;30.50;82.50;;;;;;1953018;73;20418;-76
2021/07/22 12:16:55;;;;;;;;;;;30.50;82.50;;;;;;1964031;72;20161;-76
2021/07/22 12:19:26;;;;;;;;;;;30.50;82.70;;;;;;1957311;73;20214;-76
2021/07/22 12:21:59;;;;;;;;;;;30.50;82.50;;;;;;1946955;72;20594;-75
2021/07/22 12:24:29;;;;;;;;;;;30.50;82.50;;;;;;1964342;72;20445;-76
2021/07/22 12:26:59;;;;;;;;;;;30.50;82.70;;;;;;1967879;72;20535;-76
2021/07/22 12:29:29;;;;;;;;;;;30.50;82.70;;;;;;1946533;72;20195;-77
2021/07/22 12:32:00;;;;;;;;;;;30.50;82.70;;;;;;1949251;72;20226;-77
2021/07/22 12:34:31;;;;;;;;;;;30.50;82.50;;;;;;1942400;73;20128;-77
2021/07/22 12:37:01;;;;;;;;;;;30.40;82.60;;;;;;1953599;73;20214;-77
2021/07/22 12:39:32;;;;;;;;;;;30.40;82.50;;;;;;1938044;73;20128;-76
2021/07/22 12:42:03;;;;;;;;;;;30.40;82.60;;;;;;1962647;73;20123;-77
2021/07/22 12:44:40;;;;;;;;;;;30.40;82.70;;;;;;1962964;72;20217;-77
2021/07/22 12:47:06;;;;;;;;;;;30.40;82.70;;;;;;1959099;73;20195;-77
2021/07/22 12:49:37;;;;;;;;;;;30.40;82.70;;;;;;1940132;73;20692;-89
2021/07/22 12:52:07;;;;;;;;;;;30.40;82.60;;;;;;1961000;72;20202;-86
2021/07/22 12:54:37;;;;;;;;;;;30.40;82.70;;;;;;1963082;72;20177;-85
2021/07/22 12:57:07;;;;;;;;;;;30.40;82.70;;;;;;1951386;72;20271;-88
2021/07/22 12:59:37;;;;;;;;;;;30.40;82.90;;;;;;1929379;72;20212;-91
2021/07/22 13:02:08;;;;;;;;;;;30.30;82.70;;;;;;1918949;73;20221;-86
2021/07/22 13:04:38;;;;;;;;;;;30.30;82.80;;;;;;1877894;75;20183;-90
2021/07/22 13:07:08;;;;;;;;;;;30.30;82.60;;;;;;1914369;73;20118;-90
2021/07/22 13:09:41;;;;;;;;;;;30.30;82.70;;;;;;1933828;74;20133;-88
2021/07/22 13:12:10;;;;;;;;;;;30.30;82.90;;;;;;1940605;74;20206;-88
2021/07/22 13:14:40;;;;;;;;;;;30.30;82.80;;;;;;1938079;73;20215;-88
2021/07/22 13:17:11;;;;;;;;;;;30.30;82.90;;;;;;1929424;73;20164;-87
2021/07/22 13:19:44;;;;;;;;;;;30.30;82.90;;;;;;1941974;72;20262;-87
2021/07/22 13:22:13;;;;;;;;;;;30.30;83.20;;;;;;1936544;72;20142;-89
2021/07/22 13:24:48;;;;;;;;;;;30.30;83.40;;;;;;1943119;73;20175;-88
2021/07/22 13:27:17;;;;;;;;;;;30.20;83.50;;;;;;1945452;73;20475;-89
2021/07/22 13:29:46;;;;;;;;;;;30.20;83.50;;;;;;1955194;73;20218;-89
2021/07/22 13:32:21;;;;;;;;;;;30.20;83.80;;;;;;1950768;73;20216;-88
2021/07/22 13:34:52;;;;;;;;;;;30.20;83.80;;;;;;1960616;73;20568;-88
2021/07/22 13:37:23;;;;;;;;;;;30.20;83.90;;;;;;1952344;72;20211;-89
2021/07/22 13:39:53;;;;;;;;;;;30.20;83.90;;;;;;1939058;73;20202;-89
2021/07/22 13:42:25;;;;;;;;;;;30.10;83.70;;;;;;1947361;73;20292;-89
2021/07/22 13:44:55;;;;;;;;;;;30.20;84.00;;;;;;1927810;73;20166;-89
2021/07/22 13:47:33;;;;;;;;;;;30.10;83.80;;;;;;1945864;73;20175;-88
2021/07/22 13:50:03;;;;;;;;;;;30.10;83.90;;;;;;1935409;73;20682;-88
2021/07/22 13:52:34;;;;;;;;;;;30.20;84.10;;;;;;1941142;73;20234;-90
2021/07/22 13:55:08;;;;;;;;;;;30.20;84.00;;;;;;1937015;73;20147;-90
2021/07/22 13:57:41;;;;;;;;;;;30.20;84.00;;;;;;1946917;73;20162;-89
2021/07/22 14:00:12;;;;;;;;;;;30.10;83.90;;;;;;1938406;73;20485;-89
2021/07/22 14:02:44;;;;;;;;;;;30.10;83.70;;;;;;1939322;73;20424;-88
2021/07/22 14:05:21;;;;;;;;;;;30.10;83.70;;;;;;1937452;73;20196;-89
2021/07/22 14:07:51;;;;;;;;;;;30.10;83.40;;;;;;1940366;73;20119;-90
2021/07/22 14:10:20;;;;;;;;;;;30.10;83.30;;;;;;1942869;73;20234;-90
2021/07/22 14:12:50;;;;;;;;;;;30.10;83.40;;;;;;1937681;73;20207;-89
2021/07/22 14:15:20;;;;;;;;;;;30.10;83.10;;;;;;1943988;73;20167;-88
2021/07/22 14:17:52;;;;;;;;;;;30.10;83.10;;;;;;1939182;73;20183;-90
2021/07/22 14:20:28;;;;;;;;;;;30.10;84.50;;;;;;1940653;73;20205;-88
2021/07/22 14:23:02;;;;;;;;;;;30.00;86.70;;;;;;1944548;73;20205;-90
2021/07/22 14:25:32;;;;;;;;;;;29.80;88.20;;;;;;1944668;73;20241;-89
2021/07/22 14:28:04;;;;;;;;;;;29.60;89.80;;;;;;1943536;73;20184;-88
2021/07/22 14:30:34;;;;;;;;;;;29.30;90.50;;;;;;1938544;73;20265;-88
2021/07/22 14:33:04;;;;;;;;;;;29.20;91.10;;;;;;1941040;73;20541;-90
2021/07/22 14:35:34;;;;;;;;;;;29.00;91.90;;;;;;1931526;73;20515;-90
2021/07/22 14:38:04;;;;;;;;;;;28.90;92.00;;;;;;1937041;73;20403;-90
2021/07/22 14:40:34;;;;;;;;;;;28.70;92.30;;;;;;1934891;73;20149;-88